Time;durP1;ratioP1;P1;durP2;ratioP2;P2;SDS_P1;SDS_P2;PMS_P1;PMS_P2;Temp;Humidity;BMP_temperature;BMP_pressure;BME280_temperature;BME280_humidity;BME280_pressure;Samples;Min_cycle;Max_cycle;Signal;HPM_P1;HPM_P2
2022/10/21 00:01:38;;;;;;;13.20;11.83;;;16.40;64.80;;;;;;20787;6724;278734;-89
2022/10/21 00:04:13;;;;;;;12.98;11.63;;;16.60;64.80;;;;;;20759;6724;277906;-88
2022/10/21 00:06:49;;;;;;;10.97;9.97;;;17.00;63.90;;;;;;20802;6728;117766;-89
2022/10/21 00:09:25;;;;;;;12.15;11.05;;;17.00;63.70;;;;;;20613;6747;279223;-89
2022/10/21 00:12:00;;;;;;;11.73;9.90;;;17.20;63.40;;;;;;20788;6806;117922;-89
2022/10/21 00:14:36;;;;;;;11.47;9.97;;;17.10;63.30;;;;;;20853;6745;116959;-89
2022/10/21 00:17:11;;;;;;;11.10;10.10;;;17.00;63.80;;;;;;20736;6745;128347;-89
2022/10/21 00:19:48;;;;;;;13.37;12.00;;;17.00;64.00;;;;;;20601;6763;312103;-89
2022/10/21 00:22:23;;;;;;;11.47;10.57;;;17.00;64.00;;;;;;20791;6818;118057;-90
2022/10/21 00:25:00;;;;;;;13.00;10.37;;;17.10;63.70;;;;;;20822;6758;118580;-89
2022/10/21 00:27:36;;;;;;;12.90;11.60;;;16.90;64.00;;;;;;20491;6749;312865;-90
2022/10/21 00:30:20;;;;;;;11.17;10.20;;;17.10;63.70;;;;;;20908;6782;119242;-89
2022/10/21 00:32:47;;;;;;;10.67;9.77;;;17.10;63.50;;;;;;20846;6754;117324;-89
2022/10/21 00:35:22;;;;;;;11.57;10.57;;;17.00;63.80;;;;;;20901;6726;122834;-89
2022/10/21 00:37:58;;;;;;;11.57;10.47;;;16.80;64.10;;;;;;20749;6831;119771;-88
2022/10/21 00:40:44;;;;;;;12.80;11.50;;;17.00;64.30;;;;;;20698;6726;277251;-88
2022/10/21 00:43:10;;;;;;;11.65;10.65;;;17.00;64.30;;;;;;20718;6715;275759;-88
2022/10/21 00:45:45;;;;;;;10.97;9.70;;;17.40;63.40;;;;;;20887;6729;117629;-89
2022/10/21 00:48:35;;;;;;;16.33;11.60;;;17.60;63.30;;;;;;20691;6730;276791;-88
2022/10/21 00:51:10;;;;;;;15.10;9.33;;;17.50;63.80;;;;;;20886;6730;126789;-88
2022/10/21 00:53:46;;;;;;;13.50;10.23;;;17.40;62.90;;;;;;20664;6727;305390;-88
2022/10/21 00:56:23;;;;;;;12.20;10.98;;;17.50;62.20;;;;;;20657;6718;336964;-88
2022/10/21 00:58:57;;;;;;;12.23;10.80;;;17.70;61.50;;;;;;20692;6783;306369;-89
2022/10/21 01:01:33;;;;;;;10.30;9.30;;;17.90;61.00;;;;;;20912;6729;117826;-89
2022/10/21 01:04:08;;;;;;;11.07;9.40;;;17.70;61.20;;;;;;20920;6722;117006;-88
2022/10/21 01:06:46;;;;;;;10.63;9.63;;;17.10;62.80;;;;;;20824;6732;117691;-88
2022/10/21 01:09:21;;;;;;;10.93;9.57;;;17.00;62.80;;;;;;20845;6746;117428;-88
2022/10/21 01:11:57;;;;;;;10.03;9.33;;;16.80;63.40;;;;;;20874;6739;118542;-88
2022/10/21 01:14:36;;;;;;;12.07;10.82;;;16.70;64.00;;;;;;20586;6765;279519;-88
2022/10/21 01:17:31;;;;;;;12.47;10.70;;;17.00;64.80;;;;;;20433;6818;313450;-88
2022/10/21 01:20:35;;;;;;;13.20;9.63;;;17.40;63.30;;;;;;20800;6810;117825;-88
2022/10/21 01:23:31;;;;;;;14.07;10.32;;;17.30;63.00;;;;;;20611;6804;306722;-88
2022/10/21 01:26:29;;;;;;;12.87;9.77;;;17.50;62.60;;;;;;20741;6822;117651;-88
2022/10/21 01:29:31;;;;;;;10.30;9.07;;;17.30;62.60;;;;;;20838;6741;117394;-89
2022/10/21 01:32:13;;;;;;;10.30;9.33;;;17.10;63.40;;;;;;20890;6788;117545;-89
2022/10/21 01:35:01;;;;;;;11.75;10.45;;;16.80;64.00;;;;;;20706;6790;334757;-89
2022/10/21 01:37:54;;;;;;;11.47;10.37;;;17.00;64.60;;;;;;20016;6732;291200;-96
2022/10/21 01:40:30;;;;;;;11.30;10.17;;;17.80;62.60;;;;;;20724;6732;306631;-96
2022/10/21 01:43:08;;;;;;;10.10;9.15;;;17.80;62.50;;;;;;20533;6747;294291;-88
2022/10/21 01:45:50;;;;;;;10.90;9.90;;;18.00;62.00;;;;;;20667;6751;280144;-88
2022/10/21 01:48:31;;;;;;;9.87;8.83;;;18.20;61.30;;;;;;20915;6735;116998;-88
2022/10/21 01:51:06;;;;;;;9.63;8.80;;;17.90;61.40;;;;;;20781;6766;141876;-88
2022/10/21 01:53:56;;;;;;;9.80;8.73;;;17.60;62.20;;;;;;20763;6765;117507;-89
2022/10/21 01:56:22;;;;;;;9.77;8.20;;;17.30;63.10;;;;;;20778;6749;117093;-89
2022/10/21 01:58:58;;;;;;;10.95;10.00;;;17.10;63.80;;;;;;20682;6778;308196;-89
2022/10/21 02:01:33;;;;;;;13.10;9.07;;;17.30;64.50;;;;;;20825;6741;121902;-88
2022/10/21 02:04:09;;;;;;;12.73;10.88;;;17.60;64.00;;;;;;20679;6792;336144;-89
2022/10/21 02:06:45;;;;;;;11.03;10.00;;;17.50;63.90;;;;;;20770;6749;118102;-88
2022/10/21 02:09:21;;;;;;;10.10;9.20;;;17.50;63.50;;;;;;20912;6726;117756;-91
2022/10/21 02:11:56;;;;;;;13.02;10.23;;;17.30;64.60;;;;;;20596;6736;310855;-88
2022/10/21 02:14:33;;;;;;;12.73;9.37;;;17.40;64.40;;;;;;20916;6726;117483;-88
2022/10/21 02:17:10;;;;;;;11.43;10.32;;;17.30;63.90;;;;;;20550;6733;324006;-90
2022/10/21 02:19:46;;;;;;;11.33;10.30;;;17.50;64.40;;;;;;20707;6726;317992;-88
2022/10/21 02:22:22;;;;;;;11.27;10.27;;;17.90;63.10;;;;;;20666;6790;307698;-88
2022/10/21 02:24:59;;;;;;;13.02;10.52;;;17.90;63.00;;;;;;20640;6741;336802;-89
2022/10/21 02:27:34;;;;;;;13.00;10.07;;;18.00;62.40;;;;;;20543;6732;279180;-89
2022/10/21 02:30:10;;;;;;;10.77;8.97;;;18.10;62.20;;;;;;20837;6804;117508;-88
2022/10/21 02:32:49;;;;;;;10.80;9.15;;;17.90;62.50;;;;;;20652;6747;336120;-89
2022/10/21 02:35:34;;;;;;;10.23;9.33;;;17.90;62.80;;;;;;20633;6733;289896;-89
2022/10/21 02:38:16;;;;;;;9.33;8.63;;;18.10;62.80;;;;;;20728;6842;117876;-90
2022/10/21 02:40:55;;;;;;;10.60;9.60;;;17.90;62.80;;;;;;20609;6804;301984;-89
2022/10/21 02:43:30;;;;;;;9.95;9.05;;;17.90;62.80;;;;;;20610;6750;336268;-89
2022/10/21 02:46:06;;;;;;;9.53;8.63;;;18.10;62.60;;;;;;20840;6738;117276;-88
2022/10/21 02:48:42;;;;;;;11.27;9.40;;;17.90;63.00;;;;;;20664;6732;278130;-89
2022/10/21 02:51:19;;;;;;;15.88;9.95;;;17.90;62.90;;;;;;20636;6736;337333;-89
2022/10/21 02:53:55;;;;;;;45.77;11.30;;;18.10;62.20;;;;;;20905;6743;117157;-88
2022/10/21 02:56:30;;;;;;;20.58;11.32;;;17.90;62.20;;;;;;20593;6800;308792;-90
2022/10/21 02:59:08;;;;;;;29.37;10.40;;;17.90;62.20;;;;;;20928;6758;117738;-89
2022/10/21 03:01:43;;;;;;;24.27;9.27;;;17.60;62.20;;;;;;20868;6741;118713;-89
2022/10/21 03:04:19;;;;;;;10.30;8.70;;;17.30;63.10;;;;;;20914;6728;116695;-89
2022/10/21 03:07:04;;;;;;;9.60;8.77;;;17.00;63.60;;;;;;20794;6728;117148;-89
2022/10/21 03:09:30;;;;;;;8.73;8.03;;;16.80;64.30;;;;;;20892;6726;117055;-89
2022/10/21 03:12:06;;;;;;;10.40;9.70;;;16.70;65.10;;;;;;20719;6772;306983;-89
2022/10/21 03:14:42;;;;;;;10.27;9.47;;;16.90;66.00;;;;;;20943;6772;118155;-89
2022/10/21 03:17:18;;;;;;;9.33;8.50;;;17.00;65.50;;;;;;20788;6734;117932;-88
2022/10/21 03:19:59;;;;;;;10.67;9.60;;;16.80;65.50;;;;;;20684;6789;281558;-89
2022/10/21 03:22:29;;;;;;;11.70;10.70;;;17.10;65.90;;;;;;20745;6716;299188;-88
2022/10/21 03:25:05;;;;;;;9.50;8.60;;;17.40;64.80;;;;;;20927;6716;121291;-88
2022/10/21 03:27:40;;;;;;;9.83;8.73;;;17.40;64.40;;;;;;20800;6716;117619;-88
2022/10/21 03:30:16;;;;;;;9.20;8.50;;;17.20;65.00;;;;;;20957;6716;117001;-88
2022/10/21 03:32:52;;;;;;;11.00;10.20;;;16.80;66.20;;;;;;20903;6774;117116;-89
2022/10/21 03:35:38;;;;;;;;;;;;;;;;;;;;;
2022/10/21 03:38:03;;;;;;;13.70;11.70;;;17.10;66.20;;;;;;20752;6716;287100;-87
2022/10/21 03:40:40;;;;;;;10.20;9.40;;;17.50;65.10;;;;;;20957;6716;117328;-87
2022/10/21 03:43:16;;;;;;;11.50;10.60;;;17.50;64.70;;;;;;20725;6716;305337;-87
2022/10/21 03:45:51;;;;;;;11.50;10.60;;;17.60;64.40;;;;;;20923;6716;117770;-87
2022/10/21 03:48:28;;;;;;;10.70;9.57;;;17.50;64.30;;;;;;20954;6716;117240;-90
2022/10/21 03:51:05;;;;;;;11.10;10.10;;;17.40;66.00;;;;;;20663;6774;287139;-87
2022/10/21 03:53:40;;;;;;;11.30;10.33;;;17.30;65.20;;;;;;20721;6716;305733;-87
2022/10/21 03:56:19;;;;;;;10.27;9.30;;;17.60;64.60;;;;;;20883;6773;118466;-87
2022/10/21 03:58:54;;;;;;;8.70;8.00;;;17.60;64.50;;;;;;20892;6789;123209;-88
2022/10/21 04:01:30;;;;;;;12.23;10.47;;;17.30;65.00;;;;;;20698;6726;276996;-87
2022/10/21 04:04:06;;;;;;;11.60;10.60;;;17.40;65.10;;;;;;20699;6728;322494;-87
2022/10/21 04:06:42;;;;;;;11.95;10.68;;;17.70;64.30;;;;;;20591;6787;279029;-87
2022/10/21 04:09:18;;;;;;;11.82;10.70;;;18.10;62.50;;;;;;20677;6780;310782;-88
2022/10/21 04:11:54;;;;;;;10.00;8.70;;;18.10;63.00;;;;;;20865;6731;121509;-87
2022/10/21 04:14:33;;;;;;;10.70;9.70;;;17.80;63.10;;;;;;20694;6731;311468;-87
2022/10/21 04:17:08;;;;;;;8.87;7.70;;;17.90;63.50;;;;;;20789;6716;123502;-88
2022/10/21 04:19:44;;;;;;;9.77;8.88;;;17.70;63.80;;;;;;20693;6734;310907;-87
2022/10/21 04:22:19;;;;;;;11.10;8.13;;;17.80;64.10;;;;;;20899;6739;117545;-91
2022/10/21 04:24:55;;;;;;;15.83;9.80;;;17.70;64.20;;;;;;20791;6774;121714;-88
2022/10/21 04:27:31;;;;;;;14.48;11.90;;;17.60;64.70;;;;;;20502;6755;298227;-89
2022/10/21 04:30:07;;;;;;;12.67;10.33;;;17.60;65.00;;;;;;20903;6739;117444;-88
2022/10/21 04:32:43;;;;;;;10.30;9.20;;;17.50;64.70;;;;;;20957;6726;123716;-89
2022/10/21 04:35:18;;;;;;;11.80;9.47;;;17.40;65.30;;;;;;20839;6730;119433;-88
2022/10/21 04:38:32;;;;;;;;;;;;;;;;;;;;;
2022/10/21 04:40:45;;;;;;;;;;;;;;;;;;;;;
2022/10/21 04:43:10;;;;;;;8.85;8.00;;;17.70;65.10;;;;;;20650;6731;276747;-93
2022/10/21 04:46:09;;;;;;;8.03;7.23;;;18.00;64.40;;;;;;20967;6616;114007;31
2022/10/21 04:48:45;;;;;;;9.17;7.30;;;17.90;64.20;;;;;;20922;6731;116067;-88
2022/10/21 04:51:24;;;;;;;10.00;7.70;;;17.60;65.00;;;;;;20901;6740;117664;-88
2022/10/21 04:53:59;;;;;;;8.17;6.80;;;17.40;65.70;;;;;;20921;6746;117206;-90
2022/10/21 04:56:35;;;;;;;9.00;7.17;;;17.20;66.20;;;;;;20791;6750;117169;-91
2022/10/21 04:59:11;;;;;;;10.43;8.00;;;17.00;67.10;;;;;;20805;6792;117078;-87
2022/10/21 05:01:47;;;;;;;9.97;8.63;;;17.00;66.80;;;;;;20691;6734;306735;-90
2022/10/21 05:04:22;;;;;;;9.32;8.38;;;17.30;67.30;;;;;;20703;6732;335149;-88
2022/10/21 05:07:50;;;;;;;9.97;8.00;;;17.60;66.20;;;;;;20526;6755;313855;-88
2022/10/21 05:09:42;;;;;;;9.73;7.97;;;17.90;65.30;;;;;;20539;6810;117162;-91
2022/10/21 05:12:17;;;;;;;10.23;8.93;;;17.80;65.00;;;;;;20733;6732;276260;-87
2022/10/21 05:14:53;;;;;;;8.37;7.57;;;17.90;65.40;;;;;;20870;6752;117324;-92
2022/10/21 05:17:29;;;;;;;11.13;9.57;;;17.80;65.50;;;;;;20527;6735;283854;-88
2022/10/21 05:20:05;;;;;;;10.98;9.82;;;17.80;65.50;;;;;;20649;6749;295074;-91
2022/10/21 05:22:41;;;;;;;10.87;9.77;;;18.10;64.70;;;;;;20642;6746;278199;-91
2022/10/21 05:25:17;;;;;;;11.30;9.20;;;18.30;63.40;;;;;;20551;6806;329656;-90
2022/10/21 05:28:06;;;;;;;;;;;;;;;;;;;;;
2022/10/21 05:30:32;;;;;;;10.90;9.03;;;18.40;62.90;;;;;;20835;6739;118243;-91
2022/10/21 05:33:08;;;;;;;10.98;9.88;;;18.10;63.20;;;;;;20673;6732;277693;-91
2022/10/21 05:35:53;;;;;;;18.53;9.37;;;18.00;63.40;;;;;;20808;6727;116838;-90
2022/10/21 05:38:29;;;;;;;8.67;7.97;;;17.40;64.50;;;;;;20903;6735;117310;-92
2022/10/21 05:41:15;;;;;;;;;;;;;;;;;;;;;
2022/10/21 05:43:41;;;;;;;14.20;9.57;;;17.50;65.10;;;;;;20653;6735;336715;-91
2022/10/21 05:46:26;;;;;;;11.33;10.07;;;17.70;64.60;;;;;;20650;6733;297602;-91
2022/10/21 05:48:52;;;;;;;11.02;10.05;;;17.90;63.90;;;;;;20720;6735;330018;-92
2022/10/21 05:51:27;;;;;;;7.40;6.70;;;18.10;63.20;;;;;;20888;6735;120236;-92
2022/10/21 05:54:04;;;;;;;9.40;8.60;;;17.80;63.30;;;;;;20705;6724;306547;-90
2022/10/21 05:56:41;;;;;;;8.23;7.43;;;17.80;64.00;;;;;;20800;6741;117871;-89
2022/10/21 05:59:26;;;;;;;9.05;8.32;;;17.60;64.30;;;;;;20633;6741;307465;-93
2022/10/21 06:01:52;;;;;;;9.70;7.43;;;17.70;64.90;;;;;;20920;6735;117641;-90
2022/10/21 06:04:28;;;;;;;8.82;8.02;;;17.50;64.90;;;;;;20734;6721;276486;-90
2022/10/21 06:07:04;;;;;;;9.23;8.43;;;17.60;65.30;;;;;;20560;6721;309519;-91
2022/10/21 06:09:40;;;;;;;8.83;6.90;;;17.60;65.50;;;;;;20845;6753;117193;-91
2022/10/21 06:12:25;;;;;;;8.17;7.40;;;17.60;64.90;;;;;;20674;6748;306032;-92
2022/10/21 06:14:51;;;;;;;9.53;6.90;;;17.60;65.80;;;;;;20895;6741;117111;-88
2022/10/21 06:17:27;;;;;;;7.07;6.37;;;17.40;66.00;;;;;;20733;6739;123545;-88
2022/10/21 06:20:02;;;;;;;9.60;6.75;;;17.20;67.00;;;;;;20792;6723;305790;-89
2022/10/21 06:22:47;;;;;;;9.57;7.10;;;17.30;68.40;;;;;;20770;6724;309175;-96
2022/10/21 06:25:14;;;;;;;7.07;6.13;;;17.60;67.30;;;;;;20930;6724;117369;-92
2022/10/21 06:27:49;;;;;;;10.37;6.20;;;17.40;67.10;;;;;;20801;6722;117492;-90
2022/10/21 06:30:25;;;;;;;9.73;6.37;;;17.20;68.60;;;;;;20886;6733;117673;-91
2022/10/21 06:33:01;;;;;;;10.73;6.23;;;17.00;68.80;;;;;;20765;6764;117352;-92
2022/10/21 06:35:36;;;;;;;11.23;6.82;;;16.80;69.40;;;;;;20555;6786;309362;-87
2022/10/21 06:38:12;;;;;;;7.47;6.33;;;17.00;70.10;;;;;;20664;6745;280066;-87
2022/10/21 06:40:47;;;;;;;11.23;8.07;;;17.40;69.20;;;;;;20634;6745;335367;-88
2022/10/21 06:43:23;;;;;;;19.40;13.70;;;17.70;68.10;;;;;;20800;6771;123023;-86
2022/10/21 06:46:02;;;;;;;40.85;31.35;;;17.60;68.10;;;;;;20611;6752;282415;-89
2022/10/21 06:48:38;;;;;;;11.77;9.73;;;17.90;68.40;;;;;;20666;6740;307106;-89
2022/10/21 06:51:17;;;;;;;10.67;8.13;;;17.80;67.70;;;;;;20795;6755;118154;-89
2022/10/21 06:53:53;;;;;;;10.97;7.30;;;17.70;67.80;;;;;;20883;6744;117056;-88
2022/10/21 06:56:30;;;;;;;7.97;5.67;;;17.40;68.70;;;;;;20849;6724;117244;-87
2022/10/21 06:59:11;;;;;;;8.60;6.07;;;17.10;69.70;;;;;;20876;6744;118271;-87
2022/10/21 07:01:41;;;;;;;12.05;6.62;;;16.90;70.50;;;;;;20700;6730;277563;-87
2022/10/21 07:04:29;;;;;;;7.80;6.87;;;17.20;70.90;;;;;;20667;6751;329027;-84
2022/10/21 07:06:56;;;;;;;10.30;7.10;;;17.50;69.70;;;;;;20502;6795;307734;-87
2022/10/21 07:09:33;;;;;;;7.97;6.20;;;17.80;68.50;;;;;;20895;6732;117628;-87
2022/10/21 07:12:09;;;;;;;6.30;5.80;;;17.70;68.40;;;;;;20921;6731;117335;-88
2022/10/21 07:14:45;;;;;;;8.27;6.35;;;17.40;69.20;;;;;;20669;6731;305692;-87
2022/10/21 07:17:20;;;;;;;8.27;6.30;;;17.50;68.20;;;;;;20522;6731;309444;-87
2022/10/21 07:19:56;;;;;;;9.93;6.70;;;17.80;67.60;;;;;;20682;6742;277031;-87
2022/10/21 07:22:31;;;;;;;9.27;8.37;;;18.10;67.40;;;;;;20630;6752;309800;-87
2022/10/21 07:25:07;;;;;;;10.20;7.60;;;18.30;66.40;;;;;;20829;6732;118240;-86
2022/10/21 07:27:52;;;;;;;11.02;7.32;;;18.10;66.50;;;;;;20504;6743;338528;-85
2022/10/21 07:30:19;;;;;;;7.77;7.03;;;17.90;67.20;;;;;;20854;6744;116962;-86
2022/10/21 07:32:54;;;;;;;8.03;7.23;;;17.80;67.10;;;;;;20861;6750;117011;-86
2022/10/21 07:35:30;;;;;;;9.97;8.83;;;17.50;68.40;;;;;;20604;6762;277609;-87
2022/10/21 07:38:06;;;;;;;12.63;10.40;;;17.60;69.50;;;;;;20510;6786;338924;-86
2022/10/21 07:40:41;;;;;;;10.27;8.50;;;17.90;68.40;;;;;;20870;6743;118397;-87
2022/10/21 07:43:17;;;;;;;13.50;8.87;;;17.70;68.60;;;;;;20808;6759;117832;-87
2022/10/21 07:45:52;;;;;;;9.07;8.38;;;17.50;70.00;;;;;;20612;6754;301869;-85
2022/10/21 07:48:28;;;;;;;8.90;8.00;;;17.60;71.50;;;;;;20676;6746;280416;-83
2022/10/21 07:51:14;;;;;;;;;;;;;;;;;;;;;
2022/10/21 08:04:32;;;;;;;10.50;6.60;;;18.50;65.30;;;;;;21236;6514;82852;-84
2022/10/21 08:06:54;;;;;;;8.80;5.93;;;18.20;66.00;;;;;;20793;6791;119983;-84
2022/10/21 08:09:20;;;;;;;6.83;5.57;;;17.80;67.40;;;;;;20727;6838;117339;-85
2022/10/21 08:11:45;;;;;;;6.70;5.57;;;17.50;69.10;;;;;;20749;6838;116935;-83
2022/10/21 08:14:11;;;;;;;6.78;6.18;;;17.20;70.50;;;;;;20537;6838;278477;-85
2022/10/21 08:16:36;;;;;;;8.80;6.00;;;17.40;71.50;;;;;;20540;6838;283220;-86
2022/10/21 08:19:02;;;;;;;8.17;6.03;;;17.70;70.30;;;;;;20723;6836;118217;-85
2022/10/21 08:21:27;;;;;;;7.57;5.50;;;17.70;70.10;;;;;;20754;6830;118190;-82
2022/10/21 08:23:53;;;;;;;9.17;6.80;;;17.50;70.80;;;;;;20559;6831;308023;-85
2022/10/21 08:26:18;;;;;;;7.77;6.43;;;17.60;71.30;;;;;;20809;6821;117447;-85
2022/10/21 08:28:44;;;;;;;6.97;6.27;;;17.60;71.20;;;;;;20807;6821;117388;-85
2022/10/21 08:31:13;;;;;;;6.45;5.07;;;17.40;72.10;;;;;;20814;6817;117307;-86
2022/10/21 08:33:38;;;;;;;7.63;4.90;;;17.20;72.70;;;;;;20817;6817;117447;-83
2022/10/21 08:36:04;;;;;;;5.50;4.93;;;17.10;73.30;;;;;;20831;6817;117563;-86
2022/10/21 08:38:29;;;;;;;6.83;4.53;;;17.00;74.30;;;;;;20815;6817;117161;-85
2022/10/21 08:40:55;;;;;;;6.78;4.00;;;17.00;75.20;;;;;;20812;6819;117252;-84
2022/10/21 08:43:24;;;;;;;5.07;4.50;;;16.90;75.40;;;;;;20782;6821;123069;-84
2022/10/21 08:45:50;;;;;;;7.15;4.82;;;17.30;76.50;;;;;;20563;6821;306926;-84
2022/10/21 08:48:23;;;;;;;10.33;8.77;;;17.30;76.40;;;;;;20585;6814;299235;-85
2022/10/21 08:50:48;;;;;;;11.90;10.03;;;17.70;75.00;;;;;;20805;6814;122857;-85
2022/10/21 08:53:14;;;;;;;6.77;6.00;;;17.90;73.70;;;;;;20583;6815;300952;-85
2022/10/21 08:55:40;;;;;;;8.68;6.37;;;18.00;71.80;;;;;;20514;6842;278448;-84
2022/10/21 08:58:05;;;;;;;8.07;6.35;;;18.30;70.20;;;;;;20511;6842;280757;-85
2022/10/21 09:00:47;;;;;;;9.43;7.12;;;18.50;69.10;;;;;;20480;6840;308483;-85
2022/10/21 09:03:37;;;;;;;8.47;7.13;;;18.70;69.10;;;;;;20734;6829;118985;-84
2022/10/21 09:06:13;;;;;;;7.95;6.82;;;18.50;69.30;;;;;;20522;6833;336116;-85
2022/10/21 09:08:56;;;;;;;10.83;6.87;;;18.60;68.90;;;;;;20777;6829;120192;-84
2022/10/21 09:11:42;;;;;;;9.00;5.53;;;18.50;68.70;;;;;;19511;7172;289173;-89
2022/10/21 09:14:34;;;;;;;5.90;4.80;;;18.50;68.60;;;;;;20423;6826;117535;-88
2022/10/21 09:17:07;;;;;;;5.97;4.20;;;18.10;70.10;;;;;;20788;6827;117213;-87
2022/10/21 09:19:52;;;;;;;6.77;3.80;;;18.10;69.40;;;;;;20736;6827;117278;-87
2022/10/21 09:22:38;;;;;;;6.25;3.95;;;17.90;70.30;;;;;;20572;6828;283779;-90
2022/10/21 09:25:17;;;;;;;6.53;3.80;;;18.00;69.50;;;;;;20548;6828;278398;-89
2022/10/21 09:27:42;;;;;;;5.20;3.63;;;18.40;68.20;;;;;;20747;6828;117248;-86
2022/10/21 09:30:10;;;;;;;5.07;3.40;;;18.10;69.50;;;;;;20782;6828;118762;-87
2022/10/21 09:32:38;;;;;;;8.30;4.37;;;18.00;69.10;;;;;;20556;6828;306492;-88
2022/10/21 09:35:04;;;;;;;6.53;4.17;;;18.20;70.00;;;;;;20553;6822;307953;-88
2022/10/21 09:37:39;;;;;;;5.50;4.10;;;18.50;69.20;;;;;;20568;6822;277461;-87
2022/10/21 09:40:17;;;;;;;5.65;4.55;;;18.80;68.40;;;;;;20582;6822;336007;-89
2022/10/21 09:42:43;;;;;;;7.07;3.80;;;19.00;67.80;;;;;;20794;6822;117119;-87
2022/10/21 09:45:08;;;;;;;6.25;4.60;;;18.90;68.10;;;;;;20569;6822;277364;-87
2022/10/21 09:47:34;;;;;;;6.87;4.67;;;18.90;68.70;;;;;;20388;6822;117322;-85
2022/10/21 09:49:59;;;;;;;9.60;4.80;;;18.90;69.00;;;;;;20583;6822;309541;-85
2022/10/21 09:52:27;;;;;;;6.90;4.75;;;19.30;68.50;;;;;;20578;6822;278731;-85
2022/10/21 09:54:52;;;;;;;5.40;4.17;;;19.20;68.40;;;;;;20792;6822;118283;-84
2022/10/21 09:57:22;;;;;;;6.30;3.80;;;19.20;68.30;;;;;;20780;6822;117709;-84
2022/10/21 09:59:53;;;;;;;7.78;4.53;;;19.00;69.00;;;;;;20566;6822;339805;-87
2022/10/21 10:02:29;;;;;;;7.83;3.47;;;19.10;68.60;;;;;;20790;6822;118607;-86
2022/10/21 10:04:54;;;;;;;7.30;3.97;;;19.10;68.80;;;;;;20495;6849;308070;-85
2022/10/21 10:07:33;;;;;;;5.00;3.83;;;19.20;68.40;;;;;;20737;6834;127059;-84
2022/10/21 10:09:59;;;;;;;7.57;4.40;;;19.20;68.50;;;;;;20514;6845;307954;-88
2022/10/21 10:12:24;;;;;;;5.07;3.83;;;19.30;68.20;;;;;;20786;6822;118757;-88
2022/10/21 10:14:50;;;;;;;5.83;4.03;;;19.30;68.30;;;;;;20582;6822;282488;-86
2022/10/21 10:17:22;;;;;;;6.80;4.07;;;19.40;67.80;;;;;;20570;6822;286451;-85
2022/10/21 10:20:07;;;;;;;9.38;4.20;;;19.60;66.70;;;;;;20504;6849;308052;-86
2022/10/21 10:22:34;;;;;;;4.40;3.73;;;19.80;65.70;;;;;;20527;6834;307149;-89
2022/10/21 10:25:23;;;;;;;7.27;3.47;;;19.90;65.30;;;;;;20750;6834;117488;-87
2022/10/21 10:27:48;;;;;;;5.75;3.95;;;19.70;65.60;;;;;;20489;6854;279511;-86
2022/10/21 10:30:13;;;;;;;6.80;3.23;;;19.80;66.30;;;;;;20710;6821;123550;-88
2022/10/21 10:32:39;;;;;;;5.87;3.53;;;19.60;66.70;;;;;;20806;6821;118695;-86
2022/10/21 10:35:05;;;;;;;9.40;5.20;;;19.40;67.60;;;;;;20587;6821;277461;-92
2022/10/21 10:37:30;;;;;;;6.60;4.57;;;19.50;67.50;;;;;;20598;6822;288865;-86
2022/10/21 10:39:56;;;;;;;7.30;4.03;;;19.70;66.90;;;;;;20630;6822;336754;-85
2022/10/21 10:42:21;;;;;;;8.90;4.33;;;20.00;65.60;;;;;;20812;6822;117669;-93
2022/10/21 10:44:47;;;;;;;7.30;5.25;;;19.80;65.60;;;;;;20806;6820;117172;-88
2022/10/21 10:47:23;;;;;;;12.37;6.37;;;19.60;66.50;;;;;;20805;6820;117543;-85
2022/10/21 10:49:49;;;;;;;8.37;5.33;;;19.30;67.30;;;;;;20811;6820;117764;-85
2022/10/21 10:52:16;;;;;;;6.07;5.27;;;19.10;67.70;;;;;;20606;6820;309862;-88
2022/10/21 10:54:40;;;;;;;7.10;4.67;;;19.20;66.80;;;;;;20820;6820;117561;-93
2022/10/21 10:57:12;;;;;;;4.12;3.58;;;19.20;66.80;;;;;;20936;6617;116184;-91
2022/10/21 10:59:50;;;;;;;7.33;4.83;;;19.00;67.10;;;;;;20758;6729;308370;-89
2022/10/21 11:02:34;;;;;;;7.63;4.33;;;19.10;66.40;;;;;;20887;6738;66872;-91
2022/10/21 11:05:13;;;;;;;5.70;3.90;;;19.10;66.50;;;;;;20639;6753;303070;-91
2022/10/21 11:08:01;;;;;;;3.00;2.40;;;19.30;66.50;;;;;;20649;6753;117617;-90
2022/10/21 11:10:48;;;;;;;4.73;2.90;;;19.20;66.50;;;;;;20894;6784;117051;-89
2022/10/21 11:13:23;;;;;;;2.50;2.30;;;19.00;67.30;;;;;;20904;6730;117371;-90
2022/10/21 11:16:22;;;;;;;3.67;2.62;;;18.90;68.10;;;;;;20740;6712;336115;-89
2022/10/21 11:19:14;;;;;;;3.37;2.10;;;19.10;67.10;;;;;;20954;6712;116972;-89
2022/10/21 11:21:53;;;;;;;3.27;2.03;;;19.10;66.70;;;;;;20682;6737;289275;-88
2022/10/21 11:24:31;;;;;;;3.22;2.20;;;19.30;64.60;;;;;;20680;6742;276536;-91
2022/10/21 11:27:30;;;;;;;3.33;2.30;;;19.70;64.00;;;;;;20569;6740;277844;-87
2022/10/21 11:30:18;;;;;;;3.10;1.70;;;19.90;63.10;;;;;;20684;6785;296846;-89
2022/10/21 11:33:05;;;;;;;2.73;1.80;;;20.30;61.40;;;;;;20715;6728;276778;-87
2022/10/21 11:35:40;;;;;;;2.03;1.53;;;20.30;61.40;;;;;;20709;6785;117178;-88
2022/10/21 11:38:39;;;;;;;2.83;1.73;;;20.00;62.20;;;;;;20906;6728;116649;-88
2022/10/21 11:41:24;;;;;;;2.30;1.43;;;19.80;63.80;;;;;;20699;6728;276731;-86
2022/10/21 11:44:03;;;;;;;1.60;1.50;;;19.90;64.10;;;;;;20783;6735;117006;-87
2022/10/21 11:47:04;;;;;;;1.83;1.40;;;19.70;64.60;;;;;;20791;6780;115246;-86
2022/10/21 11:49:56;;;;;;;5.50;1.70;;;19.70;64.60;;;;;;20939;6722;117494;-86
2022/10/21 11:52:34;;;;;;;3.70;1.80;;;19.50;65.40;;;;;;20926;6726;117339;-86
2022/10/21 11:55:13;;;;;;;3.03;1.70;;;19.40;66.00;;;;;;20861;6741;116979;-87
2022/10/21 11:57:48;;;;;;;1.77;1.53;;;19.30;66.50;;;;;;20751;6726;117277;-89
2022/10/21 12:00:25;;;;;;;2.73;1.50;;;19.30;66.90;;;;;;20879;6741;117413;-89
2022/10/21 12:03:21;;;;;;;4.22;1.73;;;19.20;67.00;;;;;;20725;6727;306250;-87
2022/10/21 12:06:01;;;;;;;2.67;2.57;;;19.60;65.60;;;;;;20909;6779;116992;-86
2022/10/21 12:08:38;;;;;;;3.07;1.70;;;19.60;65.60;;;;;;20981;6712;117254;-92
2022/10/21 12:11:14;;;;;;;2.45;1.90;;;19.70;64.90;;;;;;20652;6739;335646;-88
2022/10/21 12:13:56;;;;;;;2.70;2.20;;;19.70;65.00;;;;;;20876;6732;116926;-88
2022/10/21 12:16:32;;;;;;;3.93;3.40;;;19.80;65.00;;;;;;20776;6732;117412;-88
2022/10/21 12:19:07;;;;;;;1.83;1.67;;;19.70;65.50;;;;;;20844;6747;117094;-88
2022/10/21 12:21:44;;;;;;;2.80;1.20;;;19.70;65.80;;;;;;20876;6743;117240;-88
2022/10/21 12:24:30;;;;;;;2.15;1.50;;;19.60;65.40;;;;;;20647;6743;336249;-87
2022/10/21 12:27:07;;;;;;;3.40;2.23;;;19.80;63.10;;;;;;20505;6743;279799;-85
2022/10/21 12:29:58;;;;;;;5.20;4.32;;;20.30;61.20;;;;;;20699;6744;305072;-88
2022/10/21 12:32:46;;;;;;;3.30;1.60;;;20.30;61.20;;;;;;20862;6748;117406;-87
2022/10/21 12:35:45;;;;;;;1.90;1.70;;;20.20;61.60;;;;;;20663;6739;305904;-87
2022/10/21 12:38:43;;;;;;;2.47;1.70;;;20.10;61.70;;;;;;20670;6739;305314;-91
2022/10/21 12:41:26;;;;;;;1.43;1.23;;;20.30;61.30;;;;;;20613;6752;277385;-90
2022/10/21 12:44:07;;;;;;;1.50;1.00;;;20.40;60.80;;;;;;20884;6742;117955;-89
2022/10/21 12:46:37;;;;;;;1.93;1.20;;;20.20;61.60;;;;;;20789;6755;116734;-91
2022/10/21 12:49:32;;;;;;;1.80;1.30;;;19.90;62.80;;;;;;20913;6740;117209;-89
2022/10/21 12:52:08;;;;;;;1.67;1.30;;;19.80;64.20;;;;;;20773;6711;275716;-90
2022/10/21 12:54:51;;;;;;;1.17;1.07;;;19.80;64.60;;;;;;20973;6768;117183;-91
2022/10/21 12:57:28;;;;;;;1.55;1.30;;;20.00;66.10;;;;;;20622;6711;307929;-90
2022/10/21 13:00:26;;;;;;;3.33;1.70;;;20.00;65.40;;;;;;20771;6712;334996;-89
2022/10/21 13:03:06;;;;;;;1.20;1.07;;;20.30;64.20;;;;;;20917;6727;120650;-89
2022/10/21 13:05:45;;;;;;;1.37;1.27;;;20.30;64.30;;;;;;20875;6742;117458;-88
2022/10/21 13:08:26;;;;;;;2.87;1.10;;;20.10;65.00;;;;;;20917;6782;118322;-89
2022/10/21 13:11:06;;;;;;;2.73;1.27;;;19.90;65.50;;;;;;20986;6727;116188;-89
2022/10/21 13:13:42;;;;;;;2.30;1.03;;;19.70;65.80;;;;;;20933;6727;117490;-88
2022/10/21 13:16:18;;;;;;;1.57;1.40;;;19.70;65.70;;;;;;20875;6727;117095;-88
2022/10/21 13:18:59;;;;;;;1.67;1.23;;;19.60;66.00;;;;;;20944;6727;117228;-89
2022/10/21 13:21:36;;;;;;;1.67;1.20;;;19.50;66.20;;;;;;20729;6727;305428;-88
2022/10/21 13:24:15;;;;;;;5.27;1.20;;;19.70;64.10;;;;;;20914;6782;117130;-91
2022/10/21 13:26:54;;;;;;;3.10;1.50;;;19.80;64.30;;;;;;20816;6728;121119;-88
2022/10/21 13:29:36;;;;;;;1.77;1.10;;;19.60;64.70;;;;;;20869;6742;124407;-88
2022/10/21 13:32:18;;;;;;;3.73;1.40;;;19.50;65.30;;;;;;20673;6742;307395;-87
2022/10/21 13:35:26;;;;;;;0.83;0.83;;;19.70;65.10;;;;;;20882;6745;117542;-88
2022/10/21 13:38:00;;;;;;;3.70;1.30;;;19.40;65.40;;;;;;20778;6727;117153;-88